sensor_id;sensor_type;location;lat;lon;timestamp;pressure;altitude;pressure_sealevel;temperature;humidity
44138;BME280;29800;55.942;37.314;2023-05-20T00:01:34;100503.25;;;13.76;49.18
44138;BME280;29800;55.942;37.314;2023-05-20T00:04:00;100499.91;;;13.74;49.13
44138;BME280;29800;55.942;37.314;2023-05-20T00:06:26;100492.81;;;13.78;48.70
44138;BME280;29800;55.942;37.314;2023-05-20T00:08:53;100495.25;;;13.74;48.26
44138;BME280;29800;55.942;37.314;2023-05-20T00:11:20;100496.09;;;13.75;48.06
44138;BME280;29800;55.942;37.314;2023-05-20T00:13:46;100489.75;;;13.74;48.29
44138;BME280;29800;55.942;37.314;2023-05-20T00:16:13;100491.41;;;13.75;48.56
44138;BME280;29800;55.942;37.314;2023-05-20T00:18:39;100498.59;;;13.76;48.44
44138;BME280;29800;55.942;37.314;2023-05-20T00:21:06;100495.91;;;13.82;48.46
44138;BME280;29800;55.942;37.314;2023-05-20T00:23:32;100495.25;;;13.74;48.05
44138;BME280;29800;55.942;37.314;2023-05-20T00:25:58;100504.66;;;13.78;48.56
44138;BME280;29800;55.942;37.314;2023-05-20T00:28:25;100497.16;;;13.74;47.89
44138;BME280;29800;55.942;37.314;2023-05-20T00:30:51;100491.91;;;13.72;47.99
44138;BME280;29800;55.942;37.314;2023-05-20T00:33:18;100483.59;;;13.67;48.06
44138;BME280;29800;55.942;37.314;2023-05-20T00:35:44;100486.16;;;13.74;47.71
44138;BME280;29800;55.942;37.314;2023-05-20T00:38:10;100491.41;;;13.75;47.91
44138;BME280;29800;55.942;37.314;2023-05-20T00:40:36;100490.31;;;13.76;47.56
44138;BME280;29800;55.942;37.314;2023-05-20T00:43:03;100490.66;;;13.80;48.30
44138;BME280;29800;55.942;37.314;2023-05-20T00:45:29;100494.75;;;13.77;47.98
44138;BME280;29800;55.942;37.314;2023-05-20T00:47:56;100490.31;;;13.76;47.81
44138;BME280;29800;55.942;37.314;2023-05-20T00:50:24;100497.84;;;13.81;48.23
44138;BME280;29800;55.942;37.314;2023-05-20T00:52:52;100494.22;;;13.81;48.40
44138;BME280;29800;55.942;37.314;2023-05-20T00:55:21;100494.56;;;13.84;48.71
44138;BME280;29800;55.942;37.314;2023-05-20T00:57:48;100486.56;;;13.83;48.37
44138;BME280;29800;55.942;37.314;2023-05-20T01:00:15;100488.47;;;13.82;47.95
44138;BME280;29800;55.942;37.314;2023-05-20T01:02:41;100489.81;;;13.79;48.37
44138;BME280;29800;55.942;37.314;2023-05-20T01:05:07;100490.31;;;13.76;48.37
44138;BME280;29800;55.942;37.314;2023-05-20T01:07:33;100494.22;;;13.81;48.15
44138;BME280;29800;55.942;37.314;2023-05-20T01:10:00;100498.09;;;13.79;47.81
44138;BME280;29800;55.942;37.314;2023-05-20T01:12:35;100498.66;;;13.82;48.18
44138;BME280;29800;55.942;37.314;2023-05-20T01:15:14;100496.22;;;13.85;48.10
44138;BME280;29800;55.942;37.314;2023-05-20T01:17:45;100496.72;;;13.82;49.17
44138;BME280;29800;55.942;37.314;2023-05-20T01:20:13;100493.59;;;13.73;48.32
44138;BME280;29800;55.942;37.314;2023-05-20T01:22:46;100502.41;;;13.75;48.15
44138;BME280;29800;55.942;37.314;2023-05-20T01:25:12;100494.66;;;13.72;48.27
44138;BME280;29800;55.942;37.314;2023-05-20T01:27:39;100500.09;;;13.67;48.41
44138;BME280;29800;55.942;37.314;2023-05-20T01:30:06;100489.44;;;13.71;48.60
44138;BME280;29800;55.942;37.314;2023-05-20T01:33:00;100495.66;;;13.83;48.88
44138;BME280;29800;55.942;37.314;2023-05-20T01:35:29;100500.16;;;13.72;49.18
44138;BME280;29800;55.942;37.314;2023-05-20T01:37:57;100509.34;;;13.78;48.81
44138;BME280;29800;55.942;37.314;2023-05-20T01:40:24;100502.91;;;13.72;49.08
44138;BME280;29800;55.942;37.314;2023-05-20T01:42:54;100507.09;;;13.75;49.14
44138;BME280;29800;55.942;37.314;2023-05-20T01:45:23;100507.91;;;13.75;49.24
44138;BME280;29800;55.942;37.314;2023-05-20T01:47:49;100510.91;;;13.74;49.59
44138;BME280;29800;55.942;37.314;2023-05-20T01:50:16;100511.94;;;13.68;49.18
44138;BME280;29800;55.942;37.314;2023-05-20T01:52:42;100504.44;;;13.63;49.32
44138;BME280;29800;55.942;37.314;2023-05-20T01:55:08;100505.59;;;13.67;49.31
44138;BME280;29800;55.942;37.314;2023-05-20T01:57:35;100506.44;;;13.68;50.33
44138;BME280;29800;55.942;37.314;2023-05-20T02:00:03;100506.44;;;13.68;49.79
44138;BME280;29800;55.942;37.314;2023-05-20T02:02:40;100496.25;;;13.68;50.39
44138;BME280;29800;55.942;37.314;2023-05-20T02:05:09;100493.25;;;13.70;50.37
44138;BME280;29800;55.942;37.314;2023-05-20T02:07:35;100502.91;;;13.72;50.03
44138;BME280;29800;55.942;37.314;2023-05-20T02:10:01;100498.50;;;13.71;49.81
44138;BME280;29800;55.942;37.314;2023-05-20T02:12:34;100501.84;;;13.73;50.05
44138;BME280;29800;55.942;37.314;2023-05-20T02:15:01;100495.75;;;13.71;49.61
44138;BME280;29800;55.942;37.314;2023-05-20T02:17:33;100493.09;;;13.76;49.71
44138;BME280;29800;55.942;37.314;2023-05-20T02:20:19;100498.50;;;13.71;50.10
44138;BME280;29800;55.942;37.314;2023-05-20T02:22:45;100493.59;;;13.73;50.17
44138;BME280;29800;55.942;37.314;2023-05-20T02:25:11;100494.09;;;13.70;50.18
44138;BME280;29800;55.942;37.314;2023-05-20T02:27:38;100490.84;;;13.73;50.25
44138;BME280;29800;55.942;37.314;2023-05-20T02:30:06;100495.25;;;13.74;50.73
44138;BME280;29800;55.942;37.314;2023-05-20T02:32:33;100489.09;;;13.67;50.82
44138;BME280;29800;55.942;37.314;2023-05-20T02:35:00;100496.50;;;13.67;50.75
44138;BME280;29800;55.942;37.314;2023-05-20T02:37:32;100501.25;;;13.71;50.92
44138;BME280;29800;55.942;37.314;2023-05-20T02:40:00;100496.00;;;13.70;51.04
44138;BME280;29800;55.942;37.314;2023-05-20T02:42:26;100502.09;;;13.72;50.80
44138;BME280;29800;55.942;37.314;2023-05-20T02:44:52;100496.91;;;13.75;51.18
44138;BME280;29800;55.942;37.314;2023-05-20T02:47:21;100501.91;;;13.78;51.77
44138;BME280;29800;55.942;37.314;2023-05-20T02:49:47;100497.50;;;13.77;51.37
44138;BME280;29800;55.942;37.314;2023-05-20T02:52:14;100504.09;;;13.76;50.83
44138;BME280;29800;55.942;37.314;2023-05-20T02:54:41;100496.97;;;13.81;51.73
44138;BME280;29800;55.942;37.314;2023-05-20T02:57:08;100492.91;;;13.83;51.45
44138;BME280;29800;55.942;37.314;2023-05-20T02:59:34;100501.09;;;13.78;51.62
44138;BME280;29800;55.942;37.314;2023-05-20T03:02:00;100496.41;;;13.78;51.95
44138;BME280;29800;55.942;37.314;2023-05-20T03:04:28;100496.41;;;13.78;52.08
44138;BME280;29800;55.942;37.314;2023-05-20T03:06:54;100494.56;;;13.84;51.40
44138;BME280;29800;55.942;37.314;2023-05-20T03:09:23;100500.84;;;13.79;50.99
44138;BME280;29800;55.942;37.314;2023-05-20T03:11:50;100509.41;;;13.83;51.38
44138;BME280;29800;55.942;37.314;2023-05-20T03:14:16;100503.00;;;13.77;51.48
44138;BME280;29800;55.942;37.314;2023-05-20T03:16:43;100500.91;;;13.85;51.57
44138;BME280;29800;55.942;37.314;2023-05-20T03:19:09;100502.91;;;13.89;51.43
44138;BME280;29800;55.942;37.314;2023-05-20T03:21:35;100507.03;;;13.92;51.65
44138;BME280;29800;55.942;37.314;2023-05-20T03:24:02;100503.72;;;13.90;51.53
44138;BME280;29800;55.942;37.314;2023-05-20T03:26:28;100506.97;;;13.87;51.69
44138;BME280;29800;55.942;37.314;2023-05-20T03:28:55;100502.06;;;13.89;51.67
44138;BME280;29800;55.942;37.314;2023-05-20T03:31:22;100504.22;;;13.87;51.52
44138;BME280;29800;55.942;37.314;2023-05-20T03:33:49;100505.41;;;13.91;51.88
44138;BME280;29800;55.942;37.314;2023-05-20T03:36:15;100501.63;;;13.97;51.80
44138;BME280;29800;55.942;37.314;2023-05-20T03:38:42;100500.59;;;14.03;52.53
44138;BME280;29800;55.942;37.314;2023-05-20T03:41:08;100498.94;;;14.02;51.93
44138;BME280;29800;55.942;37.314;2023-05-20T03:43:34;100500.03;;;14.01;51.82
44138;BME280;29800;55.942;37.314;2023-05-20T03:46:01;100490.50;;;14.09;52.43
44138;BME280;29800;55.942;37.314;2023-05-20T03:48:28;100502.03;;;14.06;51.37
44138;BME280;29800;55.942;37.314;2023-05-20T03:50:54;100502.84;;;14.06;52.21
44138;BME280;29800;55.942;37.314;2023-05-20T03:53:20;100506.69;;;14.05;51.85
44138;BME280;29800;55.942;37.314;2023-05-20T03:55:47;100513.03;;;14.06;51.59
44138;BME280;29800;55.942;37.314;2023-05-20T03:58:14;100501.31;;;14.15;51.95
44138;BME280;29800;55.942;37.314;2023-05-20T04:00:40;100507.16;;;14.19;51.91
44138;BME280;29800;55.942;37.314;2023-05-20T04:03:07;100509.66;;;14.21;52.16
44138;BME280;29800;55.942;37.314;2023-05-20T04:05:35;100516.81;;;14.22;52.27
44138;BME280;29800;55.942;37.314;2023-05-20T04:08:04;100512.03;;;14.12;51.84
44138;BME280;29800;55.942;37.314;2023-05-20T04:10:32;100508.47;;;13.94;52.58
44138;BME280;29800;55.942;37.314;2023-05-20T04:12:58;100518.84;;;13.70;52.89
44138;BME280;29800;55.942;37.314;2023-05-20T04:15:24;100511.84;;;13.46;53.42
44138;BME280;29800;55.942;37.314;2023-05-20T04:17:54;100516.41;;;13.23;55.12
44138;BME280;29800;55.942;37.314;2023-05-20T04:20:21;100512.09;;;13.27;55.50
44138;BME280;29800;55.942;37.314;2023-05-20T04:22:49;100519.41;;;13.21;54.54
44138;BME280;29800;55.942;37.314;2023-05-20T04:25:16;100513.91;;;13.21;54.89
44138;BME280;29800;55.942;37.314;2023-05-20T04:27:42;100515.75;;;13.16;55.00
44138;BME280;29800;55.942;37.314;2023-05-20T04:30:09;100512.91;;;13.11;55.91
44138;BME280;29800;55.942;37.314;2023-05-20T04:32:39;100518.56;;;13.04;56.74
44138;BME280;29800;55.942;37.314;2023-05-20T04:35:06;100510.06;;;13.05;55.61
44138;BME280;29800;55.942;37.314;2023-05-20T04:37:37;100523.22;;;13.03;56.44
44138;BME280;29800;55.942;37.314;2023-05-20T04:40:06;100519.16;;;13.23;57.05
44138;BME280;29800;55.942;37.314;2023-05-20T04:42:34;100515.47;;;13.00;56.38
44138;BME280;29800;55.942;37.314;2023-05-20T04:45:00;100515.72;;;12.99;56.68
44138;BME280;29800;55.942;37.314;2023-05-20T04:47:33;100513.81;;;12.99;56.49
44138;BME280;29800;55.942;37.314;2023-05-20T04:50:06;100517.47;;;13.05;56.57
44138;BME280;29800;55.942;37.314;2023-05-20T04:52:37;100513.81;;;12.99;56.55
44138;BME280;29800;55.942;37.314;2023-05-20T04:55:06;100517.47;;;13.05;57.04
44138;BME280;29800;55.942;37.314;2023-05-20T04:57:37;100515.75;;;13.16;57.14
44138;BME280;29800;55.942;37.314;2023-05-20T05:00:09;100521.97;;;13.11;56.65
44138;BME280;29800;55.942;37.314;2023-05-20T05:02:37;100523.56;;;13.07;56.74
44138;BME280;29800;55.942;37.314;2023-05-20T05:05:03;100518.56;;;13.04;57.03
44138;BME280;29800;55.942;37.314;2023-05-20T05:07:33;100516.16;;;13.08;57.46
44138;BME280;29800;55.942;37.314;2023-05-20T05:09:59;100526.56;;;13.05;57.32
44138;BME280;29800;55.942;37.314;2023-05-20T05:12:32;100520.56;;;13.09;56.88
44138;BME280;29800;55.942;37.314;2023-05-20T05:14:59;100502.25;;;13.14;56.75
44138;BME280;29800;55.942;37.314;2023-05-20T05:17:27;100507.50;;;13.16;56.74
44138;BME280;29800;55.942;37.314;2023-05-20T05:19:55;100506.91;;;13.31;56.49
44138;BME280;29800;55.942;37.314;2023-05-20T05:22:22;100521.19;;;13.62;57.22
44138;BME280;29800;55.942;37.314;2023-05-20T05:24:48;100518.28;;;13.51;57.12
44138;BME280;29800;55.942;37.314;2023-05-20T05:27:15;100510.03;;;13.51;55.73
44138;BME280;29800;55.942;37.314;2023-05-20T05:29:41;100513.63;;;13.52;56.51
44138;BME280;29800;55.942;37.314;2023-05-20T05:32:08;100507.97;;;13.81;56.19
44138;BME280;29800;55.942;37.314;2023-05-20T05:34:34;100511.78;;;13.74;55.53
44138;BME280;29800;55.942;37.314;2023-05-20T05:37:00;100502.47;;;13.81;55.64
44138;BME280;29800;55.942;37.314;2023-05-20T05:39:26;100503.00;;;13.77;55.47
44138;BME280;29800;55.942;37.314;2023-05-20T05:41:53;100502.84;;;13.67;55.42
44138;BME280;29800;55.942;37.314;2023-05-20T05:44:21;100510.72;;;13.81;56.10
44138;BME280;29800;55.942;37.314;2023-05-20T05:46:48;100512.41;;;13.82;55.60
44138;BME280;29800;55.942;37.314;2023-05-20T05:49:14;100506.09;;;13.81;55.54
44138;BME280;29800;55.942;37.314;2023-05-20T05:51:40;100510.03;;;13.90;56.03
44138;BME280;29800;55.942;37.314;2023-05-20T05:54:07;100508.34;;;13.84;55.22
44138;BME280;29800;55.942;37.314;2023-05-20T05:56:34;100502.16;;;13.77;55.64
44138;BME280;29800;55.942;37.314;2023-05-20T05:59:00;100512.41;;;13.82;54.86
44138;BME280;29800;55.942;37.314;2023-05-20T06:01:27;100504.31;;;14.14;55.62
44138;BME280;29800;55.942;37.314;2023-05-20T06:03:53;100505.53;;;14.01;54.85
44138;BME280;29800;55.942;37.314;2023-05-20T06:06:20;100507.56;;;14.33;55.10
44138;BME280;29800;55.942;37.314;2023-05-20T06:08:47;100507.06;;;14.80;54.68
44138;BME280;29800;55.942;37.314;2023-05-20T06:11:16;100504.91;;;15.15;52.80
44138;BME280;29800;55.942;37.314;2023-05-20T06:13:42;100491.53;;;15.29;51.28
44138;BME280;29800;55.942;37.314;2023-05-20T06:16:08;100495.09;;;15.67;50.85
44138;BME280;29800;55.942;37.314;2023-05-20T06:18:35;100502.47;;;15.56;50.42
44138;BME280;29800;55.942;37.314;2023-05-20T06:21:04;100507.38;;;15.43;50.71
44138;BME280;29800;55.942;37.314;2023-05-20T06:23:31;100503.91;;;15.26;50.77
44138;BME280;29800;55.942;37.314;2023-05-20T06:26:00;100497.53;;;15.20;51.62
44138;BME280;29800;55.942;37.314;2023-05-20T06:28:27;100493.63;;;15.16;51.34
44138;BME280;29800;55.942;37.314;2023-05-20T06:30:53;100499.13;;;15.16;52.01
44138;BME280;29800;55.942;37.314;2023-05-20T06:33:22;100495.88;;;15.24;50.99
44138;BME280;29800;55.942;37.314;2023-05-20T06:35:55;100506.06;;;15.51;50.95
44138;BME280;29800;55.942;37.314;2023-05-20T06:38:22;100497.59;;;15.68;50.58
44138;BME280;29800;55.942;37.314;2023-05-20T06:40:49;100496.19;;;15.66;49.37
44138;BME280;29800;55.942;37.314;2023-05-20T06:43:16;100500.13;;;15.75;49.00
44138;BME280;29800;55.942;37.314;2023-05-20T06:46:06;100495.59;;;15.96;49.04
44138;BME280;29800;55.942;37.314;2023-05-20T06:48:38;100494.69;;;15.85;47.82
44138;BME280;29800;55.942;37.314;2023-05-20T06:51:07;100491.72;;;15.97;50.32
44138;BME280;29800;55.942;37.314;2023-05-20T06:53:38;100495.88;;;15.99;47.88
44138;BME280;29800;55.942;37.314;2023-05-20T06:56:04;100497.03;;;16.04;46.88
44138;BME280;29800;55.942;37.314;2023-05-20T06:58:31;100498.44;;;16.11;45.41
44138;BME280;29800;55.942;37.314;2023-05-20T07:00:58;100496.53;;;16.17;45.99
44138;BME280;29800;55.942;37.314;2023-05-20T07:03:25;100499.00;;;16.13;45.42
44138;BME280;29800;55.942;37.314;2023-05-20T07:05:51;100499.59;;;16.26;44.44
44138;BME280;29800;55.942;37.314;2023-05-20T07:08:19;100512.09;;;16.44;46.40
44138;BME280;29800;55.942;37.314;2023-05-20T07:10:45;100497.22;;;16.45;45.70
44138;BME280;29800;55.942;37.314;2023-05-20T07:13:14;100499.69;;;16.46;43.52
44138;BME280;29800;55.942;37.314;2023-05-20T07:15:40;100501.63;;;16.51;43.16
44138;BME280;29800;55.942;37.314;2023-05-20T07:18:07;100502.50;;;16.57;43.63
44138;BME280;29800;55.942;37.314;2023-05-20T07:20:33;100501.69;;;16.61;44.75
44138;BME280;29800;55.942;37.314;2023-05-20T07:23:06;100505.03;;;16.84;45.78
44138;BME280;29800;55.942;37.314;2023-05-20T07:25:41;100504.25;;;16.94;44.25
44138;BME280;29800;55.942;37.314;2023-05-20T07:28:08;100507.03;;;16.99;40.84
44138;BME280;29800;55.942;37.314;2023-05-20T07:30:34;100500.13;;;17.06;41.31
44138;BME280;29800;55.942;37.314;2023-05-20T07:33:18;100504.00;;;17.31;43.88
44138;BME280;29800;55.942;37.314;2023-05-20T07:35:44;100503.72;;;17.27;42.40
44138;BME280;29800;55.942;37.314;2023-05-20T07:38:11;100504.00;;;17.26;40.65
44138;BME280;29800;55.942;37.314;2023-05-20T07:40:39;100490.75;;;17.38;40.15
44138;BME280;29800;55.942;37.314;2023-05-20T07:43:07;100493.50;;;17.54;40.02
44138;BME280;29800;55.942;37.314;2023-05-20T07:45:35;100490.69;;;17.64;40.24
44138;BME280;29800;55.942;37.314;2023-05-20T07:48:03;100495.69;;;17.62;41.04
44138;BME280;29800;55.942;37.314;2023-05-20T07:50:30;100491.28;;;17.51;39.00
44138;BME280;29800;55.942;37.314;2023-05-20T07:52:57;100493.47;;;17.59;42.91
44138;BME280;29800;55.942;37.314;2023-05-20T07:55:26;100487.34;;;17.72;40.28
44138;BME280;29800;55.942;37.314;2023-05-20T07:57:54;100492.81;;;18.13;41.21
44138;BME280;29800;55.942;37.314;2023-05-20T08:00:21;100484.72;;;18.32;43.46
44138;BME280;29800;55.942;37.314;2023-05-20T08:02:47;100490.53;;;18.31;41.49
44138;BME280;29800;55.942;37.314;2023-05-20T08:05:19;100484.50;;;18.18;40.70
44138;BME280;29800;55.942;37.314;2023-05-20T08:07:47;100492.81;;;18.24;41.54
44138;BME280;29800;55.942;37.314;2023-05-20T08:10:15;100494.50;;;18.09;39.29
44138;BME280;29800;55.942;37.314;2023-05-20T08:12:43;100497.31;;;17.99;38.68
44138;BME280;29800;55.942;37.314;2023-05-20T08:15:09;100481.25;;;17.96;38.96
44138;BME280;29800;55.942;37.314;2023-05-20T08:17:37;100478.44;;;18.06;41.33
44138;BME280;29800;55.942;37.314;2023-05-20T08:20:05;100484.81;;;18.12;41.57
44138;BME280;29800;55.942;37.314;2023-05-20T08:22:35;100483.41;;;18.14;39.44
44138;BME280;29800;55.942;37.314;2023-05-20T08:25:02;100477.53;;;18.26;38.27
44138;BME280;29800;55.942;37.314;2023-05-20T08:27:29;100478.88;;;18.39;39.08
44138;BME280;29800;55.942;37.314;2023-05-20T08:29:56;100477.50;;;18.31;38.81
44138;BME280;29800;55.942;37.314;2023-05-20T08:32:22;100483.06;;;18.26;39.14
44138;BME280;29800;55.942;37.314;2023-05-20T08:34:49;100483.66;;;18.18;40.37
44138;BME280;29800;55.942;37.314;2023-05-20T08:37:15;100484.31;;;17.79;39.33
44138;BME280;29800;55.942;37.314;2023-05-20T08:39:42;100478.53;;;17.60;40.15
44138;BME280;29800;55.942;37.314;2023-05-20T08:42:11;100492.13;;;17.51;41.84
44138;BME280;29800;55.942;37.314;2023-05-20T08:44:39;100488.50;;;17.45;41.60
44138;BME280;29800;55.942;37.314;2023-05-20T08:47:07;100497.09;;;17.59;41.13
44138;BME280;29800;55.942;37.314;2023-05-20T08:49:34;100494.59;;;17.42;39.46
44138;BME280;29800;55.942;37.314;2023-05-20T08:52:00;100489.91;;;17.33;39.27
44138;BME280;29800;55.942;37.314;2023-05-20T08:54:43;100490.72;;;17.43;40.86
44138;BME280;29800;55.942;37.314;2023-05-20T08:57:11;100489.91;;;17.53;41.10
44138;BME280;29800;55.942;37.314;2023-05-20T08:59:44;100490.19;;;17.47;39.22
44138;BME280;29800;55.942;37.314;2023-05-20T09:02:12;100481.88;;;17.41;39.20
44138;BME280;29800;55.942;37.314;2023-05-20T09:04:38;100475.50;;;17.41;39.72
44138;BME280;29800;55.942;37.314;2023-05-20T09:07:05;100483.53;;;17.42;40.66
44138;BME280;29800;55.942;37.314;2023-05-20T09:09:33;100479.13;;;17.41;40.68
44138;BME280;29800;55.942;37.314;2023-05-20T09:12:01;100486.59;;;17.51;40.75
44138;BME280;29800;55.942;37.314;2023-05-20T09:14:29;100485.19;;;17.54;40.17
44138;BME280;29800;55.942;37.314;2023-05-20T09:16:56;100489.56;;;17.75;41.82
44138;BME280;29800;55.942;37.314;2023-05-20T09:19:22;100487.38;;;17.67;40.10
44138;BME280;29800;55.942;37.314;2023-05-20T09:21:53;100489.06;;;17.63;40.14
44138;BME280;29800;55.942;37.314;2023-05-20T09:24:24;100485.72;;;17.56;40.61
44138;BME280;29800;55.942;37.314;2023-05-20T09:26:51;100487.69;;;17.50;41.36
44138;BME280;29800;55.942;37.314;2023-05-20T09:29:17;100482.97;;;17.66;41.50
44138;BME280;29800;55.942;37.314;2023-05-20T09:31:47;100479.06;;;17.77;40.53
44138;BME280;29800;55.942;37.314;2023-05-20T09:34:14;100485.16;;;17.79;40.77
44138;BME280;29800;55.942;37.314;2023-05-20T09:36:42;100488.44;;;17.97;41.42
44138;BME280;29800;55.942;37.314;2023-05-20T09:39:15;100492.63;;;17.89;40.18
44138;BME280;29800;55.942;37.314;2023-05-20T09:41:49;100482.91;;;17.92;40.15
44138;BME280;29800;55.942;37.314;2023-05-20T09:44:20;100489.03;;;17.89;40.73
44138;BME280;29800;55.942;37.314;2023-05-20T09:46:47;100486.22;;;17.83;40.13
44138;BME280;29800;55.942;37.314;2023-05-20T09:49:15;100487.94;;;17.64;41.13
44138;BME280;29800;55.942;37.314;2023-05-20T09:51:43;100490.44;;;17.60;40.54
44138;BME280;29800;55.942;37.314;2023-05-20T09:54:11;100500.13;;;17.53;40.59
44138;BME280;29800;55.942;37.314;2023-05-20T09:56:40;100500.41;;;17.56;41.33
44138;BME280;29800;55.942;37.314;2023-05-20T09:59:08;100494.59;;;17.53;41.47
44138;BME280;29800;55.942;37.314;2023-05-20T10:01:35;100497.34;;;17.53;41.00
44138;BME280;29800;55.942;37.314;2023-05-20T10:04:05;100497.38;;;17.58;42.12
44138;BME280;29800;55.942;37.314;2023-05-20T10:06:56;100500.94;;;17.43;41.99
44138;BME280;29800;55.942;37.314;2023-05-20T10:17:27;100499.03;;;17.23;41.96
44138;BME280;29800;55.942;37.314;2023-05-20T10:20:00;100491.84;;;17.22;40.81
44138;BME280;29800;55.942;37.314;2023-05-20T10:22:28;100497.94;;;17.14;40.95
44138;BME280;29800;55.942;37.314;2023-05-20T10:24:59;100502.63;;;17.13;41.40
44138;BME280;29800;55.942;37.314;2023-05-20T10:27:26;100504.28;;;17.04;42.21
44138;BME280;29800;55.942;37.314;2023-05-20T10:29:55;100507.31;;;17.13;42.85
44138;BME280;29800;55.942;37.314;2023-05-20T10:32:28;100504.56;;;17.28;42.37
44138;BME280;29800;55.942;37.314;2023-05-20T10:35:00;100499.03;;;17.28;41.09
44138;BME280;29800;55.942;37.314;2023-05-20T10:37:39;100497.66;;;17.20;40.93
44138;BME280;29800;55.942;37.314;2023-05-20T10:40:11;100496.25;;;17.28;42.22
44138;BME280;29800;55.942;37.314;2023-05-20T10:42:39;100499.88;;;17.29;42.17
44138;BME280;29800;55.942;37.314;2023-05-20T10:45:06;100503.44;;;17.44;42.33
44138;BME280;29800;55.942;37.314;2023-05-20T10:47:33;100498.47;;;17.52;41.29
44138;BME280;29800;55.942;37.314;2023-05-20T10:50:00;100491.00;;;17.47;40.19
44138;BME280;29800;55.942;37.314;2023-05-20T10:52:32;100494.06;;;17.45;40.04
44138;BME280;29800;55.942;37.314;2023-05-20T10:54:59;100492.94;;;17.47;40.55
44138;BME280;29800;55.942;37.314;2023-05-20T10:57:27;100496.25;;;17.49;41.69
44138;BME280;29800;55.942;37.314;2023-05-20T10:59:54;100494.06;;;17.45;41.76
44138;BME280;29800;55.942;37.314;2023-05-20T11:02:21;100502.91;;;17.32;40.82
44138;BME280;29800;55.942;37.314;2023-05-20T11:04:52;100507.31;;;17.23;40.77
44138;BME280;29800;55.942;37.314;2023-05-20T11:07:29;100505.41;;;17.29;41.92
44138;BME280;29800;55.942;37.314;2023-05-20T11:09:57;100503.47;;;17.19;40.93
44138;BME280;29800;55.942;37.314;2023-05-20T11:12:25;100512.03;;;17.22;41.72
44138;BME280;29800;55.942;37.314;2023-05-20T11:14:52;100513.66;;;16.87;40.82
44138;BME280;29800;55.942;37.314;2023-05-20T11:17:18;100514.97;;;16.75;40.34
44138;BME280;29800;55.942;37.314;2023-05-20T11:19:46;100514.09;;;16.64;40.42
44138;BME280;29800;55.942;37.314;2023-05-20T11:22:12;100506.63;;;16.54;43.12
44138;BME280;29800;55.942;37.314;2023-05-20T11:24:39;100522.38;;;16.53;42.16
44138;BME280;29800;55.942;37.314;2023-05-20T11:27:06;100504.09;;;16.47;41.16
44138;BME280;29800;55.942;37.314;2023-05-20T11:29:33;100508.25;;;16.45;41.44
44138;BME280;29800;55.942;37.314;2023-05-20T11:32:00;100508.78;;;16.42;41.71
44138;BME280;29800;55.942;37.314;2023-05-20T11:34:36;100502.75;;;16.50;41.60
44138;BME280;29800;55.942;37.314;2023-05-20T11:37:06;100499.97;;;16.50;42.02
44138;BME280;29800;55.942;37.314;2023-05-20T11:39:34;100503.56;;;16.56;42.01
44138;BME280;29800;55.942;37.314;2023-05-20T11:42:00;100509.97;;;16.61;42.62
44138;BME280;29800;55.942;37.314;2023-05-20T11:44:26;100508.84;;;16.62;42.08
44138;BME280;29800;55.942;37.314;2023-05-20T11:46:59;100509.44;;;16.69;41.82
44138;BME280;29800;55.942;37.314;2023-05-20T11:49:26;100503.31;;;16.57;41.14
44138;BME280;29800;55.942;37.314;2023-05-20T11:51:53;100506.88;;;16.52;42.27
44138;BME280;29800;55.942;37.314;2023-05-20T11:54:21;100497.47;;;16.38;42.04
44138;BME280;29800;55.942;37.314;2023-05-20T11:56:48;100507.66;;;16.32;42.43
44138;BME280;29800;55.942;37.314;2023-05-20T11:59:15;100507.09;;;16.30;42.02
44138;BME280;29800;55.942;37.314;2023-05-20T12:01:41;100507.16;;;16.51;42.74
44138;BME280;29800;55.942;37.314;2023-05-20T12:04:11;100514.91;;;16.54;42.93
44138;BME280;29800;55.942;37.314;2023-05-20T12:06:42;100524.59;;;16.51;42.65
44138;BME280;29800;55.942;37.314;2023-05-20T12:09:09;100530.28;;;16.34;43.07
44138;BME280;29800;55.942;37.314;2023-05-20T12:11:37;100537.69;;;16.19;44.46
44138;BME280;29800;55.942;37.314;2023-05-20T12:14:06;100541.72;;;15.95;45.62
44138;BME280;29800;55.942;37.314;2023-05-20T12:16:33;100556.09;;;15.65;47.78
44138;BME280;29800;55.942;37.314;2023-05-20T12:19:00;100550.13;;;15.46;49.14
44138;BME280;29800;55.942;37.314;2023-05-20T12:21:30;100551.31;;;15.23;51.00
44138;BME280;29800;55.942;37.314;2023-05-20T12:23:58;100551.16;;;15.07;51.98
44138;BME280;29800;55.942;37.314;2023-05-20T12:26:25;100548.66;;;14.79;54.50
44138;BME280;29800;55.942;37.314;2023-05-20T12:28:52;100544.03;;;14.62;56.10
44138;BME280;29800;55.942;37.314;2023-05-20T12:31:19;100541.78;;;14.37;55.75
44138;BME280;29800;55.942;37.314;2023-05-20T12:33:46;100541.34;;;14.23;55.84
44138;BME280;29800;55.942;37.314;2023-05-20T12:36:13;100536.78;;;14.12;57.22
44138;BME280;29800;55.942;37.314;2023-05-20T12:38:40;100533.94;;;14.07;56.60
44138;BME280;29800;55.942;37.314;2023-05-20T12:41:07;100529.22;;;14.02;56.64
44138;BME280;29800;55.942;37.314;2023-05-20T12:43:34;100531.47;;;14.05;57.92
44138;BME280;29800;55.942;37.314;2023-05-20T12:46:02;100524.88;;;14.06;56.41
44138;BME280;29800;55.942;37.314;2023-05-20T12:48:29;100528.84;;;14.15;56.96
44138;BME280;29800;55.942;37.314;2023-05-20T12:50:56;100516.38;;;14.30;54.39
44138;BME280;29800;55.942;37.314;2023-05-20T12:53:22;100519.91;;;14.25;53.99